sensor_id;sensor_type;location;lat;lon;timestamp;P1;durP1;ratioP1;P2;durP2;ratioP2
75787;SDS011;64406;50.024;14.492;2023-03-31T00:01:33;3.92;;;1.13;;
75787;SDS011;64406;50.024;14.492;2023-03-31T00:04:00;3.25;;;1.35;;
75787;SDS011;64406;50.024;14.492;2023-03-31T00:06:32;4.78;;;1.35;;
75787;SDS011;64406;50.024;14.492;2023-03-31T00:09:15;1.50;;;1.05;;
75787;SDS011;64406;50.024;14.492;2023-03-31T00:11:49;2.30;;;1.47;;
75787;SDS011;64406;50.024;14.492;2023-03-31T00:14:17;2.95;;;1.30;;
75787;SDS011;64406;50.024;14.492;2023-03-31T00:16:44;2.60;;;1.17;;
75787;SDS011;64406;50.024;14.492;2023-03-31T00:19:10;3.78;;;1.10;;
75787;SDS011;64406;50.024;14.492;2023-03-31T00:21:43;5.63;;;1.30;;
75787;SDS011;64406;50.024;14.492;2023-03-31T00:24:10;3.63;;;1.45;;
75787;SDS011;64406;50.024;14.492;2023-03-31T00:26:36;1.77;;;1.20;;
75787;SDS011;64406;50.024;14.492;2023-03-31T00:29:04;3.42;;;1.13;;
75787;SDS011;64406;50.024;14.492;2023-03-31T00:31:31;2.60;;;1.60;;
75787;SDS011;64406;50.024;14.492;2023-03-31T00:33:57;3.05;;;1.35;;
75787;SDS011;64406;50.024;14.492;2023-03-31T00:36:23;5.05;;;1.60;;
75787;SDS011;64406;50.024;14.492;2023-03-31T00:38:56;3.53;;;1.42;;
75787;SDS011;64406;50.024;14.492;2023-03-31T00:41:24;4.82;;;1.70;;
75787;SDS011;64406;50.024;14.492;2023-03-31T00:44:01;1.52;;;1.17;;
75787;SDS011;64406;50.024;14.492;2023-03-31T00:46:51;1.90;;;1.30;;
75787;SDS011;64406;50.024;14.492;2023-03-31T00:49:42;2.17;;;1.40;;
75787;SDS011;64406;50.024;14.492;2023-03-31T00:54:46;2.25;;;1.27;;
75787;SDS011;64406;50.024;14.492;2023-03-31T00:57:15;2.95;;;1.70;;
75787;SDS011;64406;50.024;14.492;2023-03-31T00:59:42;2.45;;;1.20;;
75787;SDS011;64406;50.024;14.492;2023-03-31T01:02:17;1.98;;;1.42;;
75787;SDS011;64406;50.024;14.492;2023-03-31T01:04:54;7.18;;;1.67;;
75787;SDS011;64406;50.024;14.492;2023-03-31T01:07:42;3.53;;;1.58;;
75787;SDS011;64406;50.024;14.492;2023-03-31T01:10:10;3.45;;;1.55;;
75787;SDS011;64406;50.024;14.492;2023-03-31T01:12:37;3.88;;;1.60;;
75787;SDS011;64406;50.024;14.492;2023-03-31T01:15:06;3.67;;;1.55;;
75787;SDS011;64406;50.024;14.492;2023-03-31T01:17:32;3.38;;;1.52;;
75787;SDS011;64406;50.024;14.492;2023-03-31T01:20:02;3.47;;;2.00;;
75787;SDS011;64406;50.024;14.492;2023-03-31T01:40:29;3.28;;;1.58;;
75787;SDS011;64406;50.024;14.492;2023-03-31T01:43:40;3.72;;;1.60;;
75787;SDS011;64406;50.024;14.492;2023-03-31T01:46:20;2.67;;;1.40;;
75787;SDS011;64406;50.024;14.492;2023-03-31T01:48:58;5.53;;;2.03;;
75787;SDS011;64406;50.024;14.492;2023-03-31T01:51:34;6.90;;;1.88;;
75787;SDS011;64406;50.024;14.492;2023-03-31T01:56:45;8.30;;;2.13;;
75787;SDS011;64406;50.024;14.492;2023-03-31T01:59:15;6.90;;;1.80;;
75787;SDS011;64406;50.024;14.492;2023-03-31T02:01:50;4.38;;;1.60;;
75787;SDS011;64406;50.024;14.492;2023-03-31T02:04:21;2.58;;;1.48;;
75787;SDS011;64406;50.024;14.492;2023-03-31T02:06:51;7.43;;;1.85;;
75787;SDS011;64406;50.024;14.492;2023-03-31T02:09:23;3.50;;;1.73;;
75787;SDS011;64406;50.024;14.492;2023-03-31T02:11:53;4.38;;;1.60;;
75787;SDS011;64406;50.024;14.492;2023-03-31T02:14:23;1.70;;;1.20;;
75787;SDS011;64406;50.024;14.492;2023-03-31T02:16:56;3.25;;;1.90;;
75787;SDS011;64406;50.024;14.492;2023-03-31T02:19:24;2.78;;;1.50;;
75787;SDS011;64406;50.024;14.492;2023-03-31T02:21:55;3.40;;;1.40;;
75787;SDS011;64406;50.024;14.492;2023-03-31T02:24:22;7.97;;;2.17;;
75787;SDS011;64406;50.024;14.492;2023-03-31T02:26:52;4.88;;;1.92;;
75787;SDS011;64406;50.024;14.492;2023-03-31T02:29:25;6.72;;;1.60;;
75787;SDS011;64406;50.024;14.492;2023-03-31T02:31:59;4.20;;;1.60;;
75787;SDS011;64406;50.024;14.492;2023-03-31T02:34:32;8.13;;;1.60;;
75787;SDS011;64406;50.024;14.492;2023-03-31T02:36:59;8.65;;;1.80;;
75787;SDS011;64406;50.024;14.492;2023-03-31T02:39:27;5.63;;;1.67;;
75787;SDS011;64406;50.024;14.492;2023-03-31T02:41:56;3.80;;;1.85;;
75787;SDS011;64406;50.024;14.492;2023-03-31T02:44:22;4.85;;;1.90;;
75787;SDS011;64406;50.024;14.492;2023-03-31T02:46:48;5.13;;;1.88;;
75787;SDS011;64406;50.024;14.492;2023-03-31T02:49:15;5.57;;;2.33;;
75787;SDS011;64406;50.024;14.492;2023-03-31T03:03:28;6.32;;;1.90;;
75787;SDS011;64406;50.024;14.492;2023-03-31T03:19:57;2.72;;;1.73;;
75787;SDS011;64406;50.024;14.492;2023-03-31T03:22:25;5.07;;;1.83;;
75787;SDS011;64406;50.024;14.492;2023-03-31T03:24:50;3.42;;;1.70;;
75787;SDS011;64406;50.024;14.492;2023-03-31T03:27:17;3.67;;;1.70;;
75787;SDS011;64406;50.024;14.492;2023-03-31T03:29:42;5.25;;;2.15;;
75787;SDS011;64406;50.024;14.492;2023-03-31T03:32:09;3.80;;;1.77;;
75787;SDS011;64406;50.024;14.492;2023-03-31T03:34:35;4.07;;;1.67;;
75787;SDS011;64406;50.024;14.492;2023-03-31T03:37:02;3.17;;;1.70;;
75787;SDS011;64406;50.024;14.492;2023-03-31T03:39:27;9.73;;;2.17;;
75787;SDS011;64406;50.024;14.492;2023-03-31T03:41:53;3.78;;;2.25;;
75787;SDS011;64406;50.024;14.492;2023-03-31T03:44:19;3.00;;;1.73;;
75787;SDS011;64406;50.024;14.492;2023-03-31T03:46:44;5.25;;;1.67;;
75787;SDS011;64406;50.024;14.492;2023-03-31T03:49:10;5.82;;;1.90;;
75787;SDS011;64406;50.024;14.492;2023-03-31T03:51:36;2.75;;;1.67;;
75787;SDS011;64406;50.024;14.492;2023-03-31T03:54:02;6.88;;;1.90;;
75787;SDS011;64406;50.024;14.492;2023-03-31T03:56:27;3.33;;;1.73;;
75787;SDS011;64406;50.024;14.492;2023-03-31T03:58:53;4.75;;;1.90;;
75787;SDS011;64406;50.024;14.492;2023-03-31T04:01:19;5.05;;;2.00;;
75787;SDS011;64406;50.024;14.492;2023-03-31T04:03:45;3.35;;;1.80;;
75787;SDS011;64406;50.024;14.492;2023-03-31T04:06:11;6.90;;;2.38;;
75787;SDS011;64406;50.024;14.492;2023-03-31T04:08:36;8.25;;;2.08;;
75787;SDS011;64406;50.024;14.492;2023-03-31T04:11:02;3.53;;;1.92;;
75787;SDS011;64406;50.024;14.492;2023-03-31T04:13:35;7.70;;;2.38;;
75787;SDS011;64406;50.024;14.492;2023-03-31T04:16:00;6.50;;;2.30;;
75787;SDS011;64406;50.024;14.492;2023-03-31T04:18:26;5.85;;;2.45;;
75787;SDS011;64406;50.024;14.492;2023-03-31T04:20:52;9.85;;;2.58;;
75787;SDS011;64406;50.024;14.492;2023-03-31T04:23:30;9.20;;;2.75;;
75787;SDS011;64406;50.024;14.492;2023-03-31T04:26:08;2.60;;;1.65;;
75787;SDS011;64406;50.024;14.492;2023-03-31T04:28:34;2.95;;;1.85;;
75787;SDS011;64406;50.024;14.492;2023-03-31T04:31:01;5.53;;;1.75;;
75787;SDS011;64406;50.024;14.492;2023-03-31T04:33:30;4.78;;;2.10;;
75787;SDS011;64406;50.024;14.492;2023-03-31T04:36:06;5.05;;;2.15;;
75787;SDS011;64406;50.024;14.492;2023-03-31T04:38:45;6.40;;;2.30;;
75787;SDS011;64406;50.024;14.492;2023-03-31T04:41:12;3.35;;;1.70;;
75787;SDS011;64406;50.024;14.492;2023-03-31T04:43:39;4.07;;;2.05;;
75787;SDS011;64406;50.024;14.492;2023-03-31T04:46:06;4.35;;;2.15;;
75787;SDS011;64406;50.024;14.492;2023-03-31T04:48:32;6.10;;;2.20;;
75787;SDS011;64406;50.024;14.492;2023-03-31T04:50:57;6.13;;;2.20;;
75787;SDS011;64406;50.024;14.492;2023-03-31T04:53:23;4.35;;;2.17;;
75787;SDS011;64406;50.024;14.492;2023-03-31T04:55:50;4.97;;;2.15;;
75787;SDS011;64406;50.024;14.492;2023-03-31T04:58:16;3.40;;;1.80;;
75787;SDS011;64406;50.024;14.492;2023-03-31T05:00:42;7.95;;;1.98;;
75787;SDS011;64406;50.024;14.492;2023-03-31T05:03:08;9.48;;;2.10;;
75787;SDS011;64406;50.024;14.492;2023-03-31T05:05:34;7.55;;;2.63;;
75787;SDS011;64406;50.024;14.492;2023-03-31T05:08:01;4.03;;;1.77;;
75787;SDS011;64406;50.024;14.492;2023-03-31T05:10:27;5.70;;;2.22;;
75787;SDS011;64406;50.024;14.492;2023-03-31T05:12:53;6.68;;;2.67;;
75787;SDS011;64406;50.024;14.492;2023-03-31T05:15:19;4.57;;;2.55;;
75787;SDS011;64406;50.024;14.492;2023-03-31T05:17:45;8.23;;;3.00;;
75787;SDS011;64406;50.024;14.492;2023-03-31T05:20:11;5.65;;;2.38;;
75787;SDS011;64406;50.024;14.492;2023-03-31T05:22:38;5.88;;;2.85;;
75787;SDS011;64406;50.024;14.492;2023-03-31T05:25:06;6.68;;;2.15;;
75787;SDS011;64406;50.024;14.492;2023-03-31T05:27:33;5.60;;;2.53;;
75787;SDS011;64406;50.024;14.492;2023-03-31T05:29:59;3.63;;;2.10;;
75787;SDS011;64406;50.024;14.492;2023-03-31T05:32:25;5.85;;;2.28;;
75787;SDS011;64406;50.024;14.492;2023-03-31T05:34:51;5.15;;;2.25;;
75787;SDS011;64406;50.024;14.492;2023-03-31T05:37:21;4.53;;;2.13;;
75787;SDS011;64406;50.024;14.492;2023-03-31T05:39:49;4.95;;;2.30;;
75787;SDS011;64406;50.024;14.492;2023-03-31T05:42:15;7.82;;;2.60;;
75787;SDS011;64406;50.024;14.492;2023-03-31T05:44:41;4.15;;;2.50;;
75787;SDS011;64406;50.024;14.492;2023-03-31T05:47:08;7.88;;;2.97;;
75787;SDS011;64406;50.024;14.492;2023-03-31T05:49:34;7.35;;;3.10;;
75787;SDS011;64406;50.024;14.492;2023-03-31T05:52:00;6.07;;;2.80;;
75787;SDS011;64406;50.024;14.492;2023-03-31T05:54:29;9.18;;;3.58;;
75787;SDS011;64406;50.024;14.492;2023-03-31T05:56:55;8.43;;;3.50;;
75787;SDS011;64406;50.024;14.492;2023-03-31T05:59:21;5.18;;;3.00;;
75787;SDS011;64406;50.024;14.492;2023-03-31T06:01:46;10.80;;;2.80;;
75787;SDS011;64406;50.024;14.492;2023-03-31T06:04:12;4.50;;;3.00;;
75787;SDS011;64406;50.024;14.492;2023-03-31T06:06:38;6.50;;;2.85;;
75787;SDS011;64406;50.024;14.492;2023-03-31T06:09:04;5.53;;;2.55;;
75787;SDS011;64406;50.024;14.492;2023-03-31T06:11:30;6.80;;;2.88;;
75787;SDS011;64406;50.024;14.492;2023-03-31T06:13:56;7.43;;;3.42;;
75787;SDS011;64406;50.024;14.492;2023-03-31T06:16:21;5.43;;;2.50;;
75787;SDS011;64406;50.024;14.492;2023-03-31T06:18:47;6.90;;;2.90;;
75787;SDS011;64406;50.024;14.492;2023-03-31T06:21:16;5.45;;;2.72;;
75787;SDS011;64406;50.024;14.492;2023-03-31T06:23:43;6.85;;;3.22;;
75787;SDS011;64406;50.024;14.492;2023-03-31T06:26:09;11.82;;;4.15;;
75787;SDS011;64406;50.024;14.492;2023-03-31T06:28:37;6.65;;;4.22;;
75787;SDS011;64406;50.024;14.492;2023-03-31T06:31:07;5.75;;;2.85;;
75787;SDS011;64406;50.024;14.492;2023-03-31T06:33:38;8.43;;;3.67;;
75787;SDS011;64406;50.024;14.492;2023-03-31T06:36:06;6.28;;;3.00;;
75787;SDS011;64406;50.024;14.492;2023-03-31T06:38:33;3.55;;;2.55;;
75787;SDS011;64406;50.024;14.492;2023-03-31T06:41:00;9.88;;;2.50;;
75787;SDS011;64406;50.024;14.492;2023-03-31T06:43:26;6.93;;;2.72;;
75787;SDS011;64406;50.024;14.492;2023-03-31T06:45:52;4.97;;;2.08;;
75787;SDS011;64406;50.024;14.492;2023-03-31T06:48:21;6.70;;;2.40;;
75787;SDS011;64406;50.024;14.492;2023-03-31T06:50:48;4.55;;;2.00;;
75787;SDS011;64406;50.024;14.492;2023-03-31T06:53:14;7.07;;;2.30;;
75787;SDS011;64406;50.024;14.492;2023-03-31T06:55:41;6.63;;;2.95;;
75787;SDS011;64406;50.024;14.492;2023-03-31T06:58:08;6.80;;;2.25;;
75787;SDS011;64406;50.024;14.492;2023-03-31T07:03:17;8.27;;;2.03;;
75787;SDS011;64406;50.024;14.492;2023-03-31T07:05:52;2.92;;;1.98;;
75787;SDS011;64406;50.024;14.492;2023-03-31T07:08:20;5.80;;;2.22;;
75787;SDS011;64406;50.024;14.492;2023-03-31T07:10:47;6.40;;;2.30;;
75787;SDS011;64406;50.024;14.492;2023-03-31T07:13:15;4.30;;;2.30;;
75787;SDS011;64406;50.024;14.492;2023-03-31T07:15:42;8.93;;;2.33;;
75787;SDS011;64406;50.024;14.492;2023-03-31T07:18:08;4.97;;;2.38;;
75787;SDS011;64406;50.024;14.492;2023-03-31T07:20:34;5.10;;;2.03;;
75787;SDS011;64406;50.024;14.492;2023-03-31T07:23:02;5.07;;;2.55;;
75787;SDS011;64406;50.024;14.492;2023-03-31T07:25:29;3.17;;;1.88;;
75787;SDS011;64406;50.024;14.492;2023-03-31T07:27:55;4.95;;;2.08;;
75787;SDS011;64406;50.024;14.492;2023-03-31T07:30:21;5.28;;;1.80;;
75787;SDS011;64406;50.024;14.492;2023-03-31T07:32:48;3.97;;;1.92;;
75787;SDS011;64406;50.024;14.492;2023-03-31T07:35:18;4.22;;;2.42;;
75787;SDS011;64406;50.024;14.492;2023-03-31T07:37:46;3.17;;;1.90;;
75787;SDS011;64406;50.024;14.492;2023-03-31T07:40:15;4.32;;;2.00;;
75787;SDS011;64406;50.024;14.492;2023-03-31T07:42:48;6.28;;;3.05;;
75787;SDS011;64406;50.024;14.492;2023-03-31T07:45:15;7.65;;;2.08;;
75787;SDS011;64406;50.024;14.492;2023-03-31T07:47:42;7.28;;;2.67;;
75787;SDS011;64406;50.024;14.492;2023-03-31T07:50:10;2.88;;;1.90;;
75787;SDS011;64406;50.024;14.492;2023-03-31T07:52:37;4.03;;;2.00;;
75787;SDS011;64406;50.024;14.492;2023-03-31T07:55:03;4.50;;;1.80;;
75787;SDS011;64406;50.024;14.492;2023-03-31T07:57:29;6.88;;;2.60;;
75787;SDS011;64406;50.024;14.492;2023-03-31T07:59:55;5.85;;;1.92;;
75787;SDS011;64406;50.024;14.492;2023-03-31T08:02:24;4.90;;;2.13;;
75787;SDS011;64406;50.024;14.492;2023-03-31T08:04:50;5.70;;;1.90;;
75787;SDS011;64406;50.024;14.492;2023-03-31T08:07:16;4.05;;;2.00;;
75787;SDS011;64406;50.024;14.492;2023-03-31T08:09:42;3.88;;;1.88;;
75787;SDS011;64406;50.024;14.492;2023-03-31T08:12:10;6.47;;;2.08;;
75787;SDS011;64406;50.024;14.492;2023-03-31T08:14:36;3.60;;;2.05;;
75787;SDS011;64406;50.024;14.492;2023-03-31T08:17:03;3.83;;;1.98;;
75787;SDS011;64406;50.024;14.492;2023-03-31T08:19:28;4.75;;;2.00;;
75787;SDS011;64406;50.024;14.492;2023-03-31T08:21:54;6.60;;;2.30;;
75787;SDS011;64406;50.024;14.492;2023-03-31T08:24:20;8.30;;;2.67;;
75787;SDS011;64406;50.024;14.492;2023-03-31T08:26:47;3.70;;;2.28;;
75787;SDS011;64406;50.024;14.492;2023-03-31T08:29:12;3.45;;;2.17;;
75787;SDS011;64406;50.024;14.492;2023-03-31T08:31:40;5.88;;;1.65;;
75787;SDS011;64406;50.024;14.492;2023-03-31T08:34:06;5.03;;;2.53;;
75787;SDS011;64406;50.024;14.492;2023-03-31T08:36:35;7.40;;;2.33;;
75787;SDS011;64406;50.024;14.492;2023-03-31T08:39:00;8.82;;;2.42;;
75787;SDS011;64406;50.024;14.492;2023-03-31T08:44:43;6.97;;;2.30;;
75787;SDS011;64406;50.024;14.492;2023-03-31T08:47:09;6.57;;;2.38;;
75787;SDS011;64406;50.024;14.492;2023-03-31T08:49:51;8.82;;;2.42;;
75787;SDS011;64406;50.024;14.492;2023-03-31T08:53:19;5.68;;;2.63;;
75787;SDS011;64406;50.024;14.492;2023-03-31T08:55:47;4.15;;;2.20;;
75787;SDS011;64406;50.024;14.492;2023-03-31T08:58:41;3.78;;;2.22;;
75787;SDS011;64406;50.024;14.492;2023-03-31T09:18:54;6.40;;;2.15;;
75787;SDS011;64406;50.024;14.492;2023-03-31T09:21:31;6.55;;;2.45;;
75787;SDS011;64406;50.024;14.492;2023-03-31T09:24:17;8.48;;;2.58;;
75787;SDS011;64406;50.024;14.492;2023-03-31T09:27:01;3.75;;;2.38;;
75787;SDS011;64406;50.024;14.492;2023-03-31T09:29:41;6.28;;;2.65;;
75787;SDS011;64406;50.024;14.492;2023-03-31T09:32:18;5.13;;;2.60;;
75787;SDS011;64406;50.024;14.492;2023-03-31T09:34:46;4.53;;;2.40;;
75787;SDS011;64406;50.024;14.492;2023-03-31T09:37:16;4.90;;;2.08;;
75787;SDS011;64406;50.024;14.492;2023-03-31T09:39:42;6.85;;;2.25;;
75787;SDS011;64406;50.024;14.492;2023-03-31T09:42:12;5.72;;;2.55;;
75787;SDS011;64406;50.024;14.492;2023-03-31T09:44:39;5.95;;;2.40;;
75787;SDS011;64406;50.024;14.492;2023-03-31T09:50:08;5.65;;;2.60;;
75787;SDS011;64406;50.024;14.492;2023-03-31T09:52:54;5.40;;;2.47;;
75787;SDS011;64406;50.024;14.492;2023-03-31T09:55:24;7.13;;;2.70;;
75787;SDS011;64406;50.024;14.492;2023-03-31T09:57:54;6.90;;;2.30;;
75787;SDS011;64406;50.024;14.492;2023-03-31T10:00:21;4.95;;;2.30;;
75787;SDS011;64406;50.024;14.492;2023-03-31T10:02:51;6.28;;;2.35;;
75787;SDS011;64406;50.024;14.492;2023-03-31T10:07:51;5.07;;;2.83;;
75787;SDS011;64406;50.024;14.492;2023-03-31T10:10:33;8.82;;;2.42;;
75787;SDS011;64406;50.024;14.492;2023-03-31T10:12:59;4.80;;;2.97;;
75787;SDS011;64406;50.024;14.492;2023-03-31T10:15:31;9.18;;;2.75;;
75787;SDS011;64406;50.024;14.492;2023-03-31T10:18:02;5.57;;;2.40;;
75787;SDS011;64406;50.024;14.492;2023-03-31T10:20:32;4.82;;;2.70;;
75787;SDS011;64406;50.024;14.492;2023-03-31T10:23:02;6.82;;;3.03;;
75787;SDS011;64406;50.024;14.492;2023-03-31T10:25:41;6.07;;;2.97;;
75787;SDS011;64406;50.024;14.492;2023-03-31T10:28:10;4.40;;;2.60;;
75787;SDS011;64406;50.024;14.492;2023-03-31T10:30:40;4.77;;;2.67;;
75787;SDS011;64406;50.024;14.492;2023-03-31T10:33:13;6.32;;;2.75;;
75787;SDS011;64406;50.024;14.492;2023-03-31T10:35:43;4.43;;;3.00;;
75787;SDS011;64406;50.024;14.492;2023-03-31T10:38:09;6.05;;;3.10;;
75787;SDS011;64406;50.024;14.492;2023-03-31T10:40:39;7.78;;;3.13;;
75787;SDS011;64406;50.024;14.492;2023-03-31T10:43:17;5.55;;;3.22;;
75787;SDS011;64406;50.024;14.492;2023-03-31T10:45:48;7.00;;;2.95;;
75787;SDS011;64406;50.024;14.492;2023-03-31T10:50:49;6.22;;;3.17;;
75787;SDS011;64406;50.024;14.492;2023-03-31T10:53:15;5.13;;;2.85;;
75787;SDS011;64406;50.024;14.492;2023-03-31T10:55:50;6.25;;;3.08;;
75787;SDS011;64406;50.024;14.492;2023-03-31T11:09:04;5.30;;;3.42;;
75787;SDS011;64406;50.024;14.492;2023-03-31T11:23:09;7.03;;;3.17;;
75787;SDS011;64406;50.024;14.492;2023-03-31T11:37:07;7.13;;;2.67;;
75787;SDS011;64406;50.024;14.492;2023-03-31T11:42:19;3.20;;;1.80;;
75787;SDS011;64406;50.024;14.492;2023-03-31T11:45:28;3.17;;;1.73;;
75787;SDS011;64406;50.024;14.492;2023-03-31T11:47:59;4.22;;;2.33;;
75787;SDS011;64406;50.024;14.492;2023-03-31T11:50:32;6.60;;;1.63;;
75787;SDS011;64406;50.024;14.492;2023-03-31T11:53:14;3.13;;;1.48;;
75787;SDS011;64406;50.024;14.492;2023-03-31T11:55:47;3.10;;;1.67;;
75787;SDS011;64406;50.024;14.492;2023-03-31T11:58:25;3.15;;;1.60;;
75787;SDS011;64406;50.024;14.492;2023-03-31T12:01:19;4.80;;;2.25;;
75787;SDS011;64406;50.024;14.492;2023-03-31T12:04:00;6.97;;;3.40;;
75787;SDS011;64406;50.024;14.492;2023-03-31T12:06:32;4.80;;;2.63;;
75787;SDS011;64406;50.024;14.492;2023-03-31T12:09:06;5.53;;;3.33;;
75787;SDS011;64406;50.024;14.492;2023-03-31T12:11:49;4.22;;;2.20;;
75787;SDS011;64406;50.024;14.492;2023-03-31T12:14:57;4.38;;;2.10;;
75787;SDS011;64406;50.024;14.492;2023-03-31T12:17:39;3.58;;;1.73;;
75787;SDS011;64406;50.024;14.492;2023-03-31T12:20:11;2.97;;;1.65;;
75787;SDS011;64406;50.024;14.492;2023-03-31T12:22:46;2.80;;;1.60;;
75787;SDS011;64406;50.024;14.492;2023-03-31T12:25:18;4.45;;;1.58;;
75787;SDS011;64406;50.024;14.492;2023-03-31T12:27:51;3.80;;;1.75;;
75787;SDS011;64406;50.024;14.492;2023-03-31T12:30:29;2.67;;;1.42;;
75787;SDS011;64406;50.024;14.492;2023-03-31T12:33:04;2.45;;;1.60;;
75787;SDS011;64406;50.024;14.492;2023-03-31T12:38:45;7.93;;;2.17;;
75787;SDS011;64406;50.024;14.492;2023-03-31T12:52:48;3.80;;;2.30;;
75787;SDS011;64406;50.024;14.492;2023-03-31T13:01:01;3.72;;;1.90;;
75787;SDS011;64406;50.024;14.492;2023-03-31T13:06:01;2.95;;;2.20;;
75787;SDS011;64406;50.024;14.492;2023-03-31T13:08:48;4.13;;;2.10;;
75787;SDS011;64406;50.024;14.492;2023-03-31T13:16:42;5.00;;;2.08;;
75787;SDS011;64406;50.024;14.492;2023-03-31T13:19:09;2.85;;;2.00;;
75787;SDS011;64406;50.024;14.492;2023-03-31T13:21:52;3.65;;;2.45;;
75787;SDS011;64406;50.024;14.492;2023-03-31T13:24:21;5.35;;;2.28;;
75787;SDS011;64406;50.024;14.492;2023-03-31T13:26:48;6.20;;;2.17;;
75787;SDS011;64406;50.024;14.492;2023-03-31T13:34:25;5.18;;;2.20;;
75787;SDS011;64406;50.024;14.492;2023-03-31T13:42:32;3.15;;;2.13;;
75787;SDS011;64406;50.024;14.492;2023-03-31T13:51:55;3.33;;;1.95;;
75787;SDS011;64406;50.024;14.492;2023-03-31T13:57:50;1.80;;;1.30;;
75787;SDS011;64406;50.024;14.492;2023-03-31T14:03:39;2.90;;;1.83;;
75787;SDS011;64406;50.024;14.492;2023-03-31T14:06:18;5.55;;;1.27;;
75787;SDS011;64406;50.024;14.492;2023-03-31T14:08:51;24.42;;;3.25;;
75787;SDS011;64406;50.024;14.492;2023-03-31T14:11:24;2.72;;;1.30;;
75787;SDS011;64406;50.024;14.492;2023-03-31T14:14:00;2.88;;;1.23;;
75787;SDS011;64406;50.024;14.492;2023-03-31T14:16:38;1.90;;;0.95;;
75787;SDS011;64406;50.024;14.492;2023-03-31T14:19:20;2.17;;;0.90;;
75787;SDS011;64406;50.024;14.492;2023-03-31T14:22:14;7.07;;;0.98;;
75787;SDS011;64406;50.024;14.492;2023-03-31T14:25:25;2.15;;;1.05;;
75787;SDS011;64406;50.024;14.492;2023-03-31T14:38:54;2.35;;;1.30;;
75787;SDS011;64406;50.024;14.492;2023-03-31T14:41:27;2.55;;;1.67;;
75787;SDS011;64406;50.024;14.492;2023-03-31T14:43:57;2.47;;;1.30;;
75787;SDS011;64406;50.024;14.492;2023-03-31T14:46:28;4.53;;;1.10;;
75787;SDS011;64406;50.024;14.492;2023-03-31T14:48:56;3.13;;;1.23;;
75787;SDS011;64406;50.024;14.492;2023-03-31T14:51:26;1.17;;;0.90;;
75787;SDS011;64406;50.024;14.492;2023-03-31T14:53:55;2.97;;;1.38;;
75787;SDS011;64406;50.024;14.492;2023-03-31T14:56:31;2.30;;;1.00;;
75787;SDS011;64406;50.024;14.492;2023-03-31T14:59:02;2.92;;;1.05;;
75787;SDS011;64406;50.024;14.492;2023-03-31T15:01:32;2.40;;;0.85;;
75787;SDS011;64406;50.024;14.492;2023-03-31T15:04:21;1.67;;;0.77;;
75787;SDS011;64406;50.024;14.492;2023-03-31T15:06:50;1.60;;;0.98;;
75787;SDS011;64406;50.024;14.492;2023-03-31T15:09:19;2.22;;;1.10;;
75787;SDS011;64406;50.024;14.492;2023-03-31T15:11:47;2.60;;;1.25;;
75787;SDS011;64406;50.024;14.492;2023-03-31T15:14:20;3.20;;;1.33;;
75787;SDS011;64406;50.024;14.492;2023-03-31T15:16:46;2.50;;;1.50;;
75787;SDS011;64406;50.024;14.492;2023-03-31T15:21:40;2.63;;;1.20;;
75787;SDS011;64406;50.024;14.492;2023-03-31T15:24:06;4.47;;;1.45;;
75787;SDS011;64406;50.024;14.492;2023-03-31T15:26:45;2.63;;;1.20;;
75787;SDS011;64406;50.024;14.492;2023-03-31T15:29:48;2.47;;;1.30;;
75787;SDS011;64406;50.024;14.492;2023-03-31T15:32:30;2.63;;;1.15;;
75787;SDS011;64406;50.024;14.492;2023-03-31T15:35:03;2.40;;;1.40;;
75787;SDS011;64406;50.024;14.492;2023-03-31T15:37:31;1.75;;;1.02;;
75787;SDS011;64406;50.024;14.492;2023-03-31T15:43:03;1.73;;;1.25;;
75787;SDS011;64406;50.024;14.492;2023-03-31T15:45:47;2.75;;;1.55;;
75787;SDS011;64406;50.024;14.492;2023-03-31T15:51:06;4.13;;;1.02;;
75787;SDS011;64406;50.024;14.492;2023-03-31T15:53:43;1.50;;;0.95;;
75787;SDS011;64406;50.024;14.492;2023-03-31T15:56:29;4.60;;;1.10;;
75787;SDS011;64406;50.024;14.492;2023-03-31T15:58:57;1.75;;;1.08;;
75787;SDS011;64406;50.024;14.492;2023-03-31T16:01:29;1.80;;;1.05;;
75787;SDS011;64406;50.024;14.492;2023-03-31T16:03:59;1.25;;;1.00;;
75787;SDS011;64406;50.024;14.492;2023-03-31T16:09:04;3.33;;;0.98;;
75787;SDS011;64406;50.024;14.492;2023-03-31T16:11:35;3.03;;;1.08;;
75787;SDS011;64406;50.024;14.492;2023-03-31T16:14:11;1.75;;;1.00;;
75787;SDS011;64406;50.024;14.492;2023-03-31T16:16:57;1.67;;;1.13;;
75787;SDS011;64406;50.024;14.492;2023-03-31T16:19:26;2.35;;;1.05;;
75787;SDS011;64406;50.024;14.492;2023-03-31T16:21:55;2.38;;;1.30;;
75787;SDS011;64406;50.024;14.492;2023-03-31T16:24:30;2.42;;;1.40;;
75787;SDS011;64406;50.024;14.492;2023-03-31T16:26:59;1.50;;;1.10;;
75787;SDS011;64406;50.024;14.492;2023-03-31T16:29:33;2.97;;;1.50;;
75787;SDS011;64406;50.024;14.492;2023-03-31T16:32:08;5.03;;;1.90;;
75787;SDS011;64406;50.024;14.492;2023-03-31T16:37:25;8.38;;;2.03;;
75787;SDS011;64406;50.024;14.492;2023-03-31T16:39:51;2.88;;;1.60;;
75787;SDS011;64406;50.024;14.492;2023-03-31T16:42:17;6.10;;;1.95;;
75787;SDS011;64406;50.024;14.492;2023-03-31T16:44:45;2.47;;;1.48;;
75787;SDS011;64406;50.024;14.492;2023-03-31T16:47:11;4.03;;;1.70;;
75787;SDS011;64406;50.024;14.492;2023-03-31T16:49:38;2.75;;;1.30;;
75787;SDS011;64406;50.024;14.492;2023-03-31T16:52:04;3.55;;;1.58;;
75787;SDS011;64406;50.024;14.492;2023-03-31T16:54:30;4.95;;;1.45;;
75787;SDS011;64406;50.024;14.492;2023-03-31T16:56:57;6.30;;;1.77;;
75787;SDS011;64406;50.024;14.492;2023-03-31T16:59:23;4.93;;;1.92;;
75787;SDS011;64406;50.024;14.492;2023-03-31T17:01:49;4.75;;;2.08;;
75787;SDS011;64406;50.024;14.492;2023-03-31T17:04:16;5.55;;;2.35;;
75787;SDS011;64406;50.024;14.492;2023-03-31T17:06:42;8.80;;;2.65;;
75787;SDS011;64406;50.024;14.492;2023-03-31T17:09:08;5.32;;;2.47;;
75787;SDS011;64406;50.024;14.492;2023-03-31T17:11:34;3.30;;;1.67;;
75787;SDS011;64406;50.024;14.492;2023-03-31T17:14:00;7.78;;;2.30;;
75787;SDS011;64406;50.024;14.492;2023-03-31T17:16:26;4.35;;;2.05;;
75787;SDS011;64406;50.024;14.492;2023-03-31T17:18:52;6.03;;;2.25;;
75787;SDS011;64406;50.024;14.492;2023-03-31T17:21:18;3.33;;;1.77;;
75787;SDS011;64406;50.024;14.492;2023-03-31T17:23:44;7.07;;;2.10;;
75787;SDS011;64406;50.024;14.492;2023-03-31T17:26:11;3.10;;;1.63;;
75787;SDS011;64406;50.024;14.492;2023-03-31T17:28:37;3.10;;;1.50;;
75787;SDS011;64406;50.024;14.492;2023-03-31T17:31:10;3.33;;;1.77;;
75787;SDS011;64406;50.024;14.492;2023-03-31T17:33:40;4.57;;;2.13;;
75787;SDS011;64406;50.024;14.492;2023-03-31T17:36:07;6.30;;;2.30;;
75787;SDS011;64406;50.024;14.492;2023-03-31T17:38:32;3.80;;;1.88;;
75787;SDS011;64406;50.024;14.492;2023-03-31T17:41:02;4.22;;;2.08;;
75787;SDS011;64406;50.024;14.492;2023-03-31T17:43:29;2.83;;;1.75;;
75787;SDS011;64406;50.024;14.492;2023-03-31T17:46:04;2.05;;;1.33;;
75787;SDS011;64406;50.024;14.492;2023-03-31T17:48:32;3.25;;;1.75;;
75787;SDS011;64406;50.024;14.492;2023-03-31T17:51:05;4.57;;;1.73;;
75787;SDS011;64406;50.024;14.492;2023-03-31T17:53:33;3.05;;;1.70;;
75787;SDS011;64406;50.024;14.492;2023-03-31T17:56:00;1.83;;;1.27;;
75787;SDS011;64406;50.024;14.492;2023-03-31T17:58:27;4.20;;;2.08;;
75787;SDS011;64406;50.024;14.492;2023-03-31T18:00:55;4.60;;;1.90;;
75787;SDS011;64406;50.024;14.492;2023-03-31T18:03:21;4.25;;;1.27;;
75787;SDS011;64406;50.024;14.492;2023-03-31T18:05:47;2.65;;;1.70;;
75787;SDS011;64406;50.024;14.492;2023-03-31T18:08:13;2.85;;;1.52;;